createdAt,value
2023-04-26T00:02:55.712Z,98189.65
2023-04-26T00:05:49.211Z,98189.04
2023-04-26T00:08:42.240Z,98191.88
2023-04-26T00:11:33.945Z,98193.55
2023-04-26T00:14:26.100Z,98194.97
2023-04-26T00:17:18.167Z,98197.75
2023-04-26T00:20:13.482Z,98200.14
2023-04-26T00:23:05.530Z,98204.77
2023-04-26T00:25:57.798Z,98205.55
2023-04-26T00:28:49.928Z,98207.70
2023-04-26T00:31:41.996Z,98209.76
2023-04-26T00:34:18.759Z,98205.70
2023-04-26T00:37:10.746Z,98205.23
2023-04-26T00:40:02.745Z,98204.39
2023-04-26T00:43:00.148Z,98205.81
2023-04-26T00:45:52.657Z,98202.03
2023-04-26T00:48:45.361Z,98197.50
2023-04-26T00:51:27.213Z,98194.72
2023-04-26T00:54:20.870Z,98198.64
2023-04-26T00:57:13.813Z,98198.49
2023-04-26T01:00:06.921Z,98197.52
2023-04-26T01:02:59.114Z,98198.71
2023-04-26T01:05:51.496Z,98193.29
2023-04-26T01:08:28.345Z,98195.86
2023-04-26T01:11:22.246Z,98195.70
2023-04-26T01:14:15.637Z,98207.42
2023-04-26T01:17:07.846Z,98210.05
2023-04-26T01:19:59.838Z,98214.82
2023-04-26T01:22:52.090Z,98212.30
2023-04-26T01:25:44.186Z,98212.36
2023-04-26T01:28:36.786Z,98216.90
2023-04-26T01:31:29.050Z,98222.55
2023-04-26T01:34:21.116Z,98227.81
2023-04-26T01:37:13.279Z,98228.20
2023-04-26T01:40:07.065Z,98233.11
2023-04-26T01:42:59.007Z,98233.95
2023-04-26T01:45:51.306Z,98238.13
2023-04-26T01:48:43.255Z,98240.52
2023-04-26T01:51:37.728Z,98244.25
2023-04-26T01:54:29.802Z,98245.59
2023-04-26T01:57:21.818Z,98246.86
2023-04-26T02:00:14.967Z,98249.70
2023-04-26T02:03:07.225Z,98247.43
2023-04-26T02:05:59.250Z,98248.77
2023-04-26T02:08:51.556Z,98247.08
2023-04-26T02:11:43.885Z,98247.46
2023-04-26T02:14:26.692Z,98250.34
2023-04-26T02:17:18.641Z,98248.98
2023-04-26T02:20:12.968Z,98249.36
2023-04-26T02:23:03.338Z,98242.89
2023-04-26T02:25:55.288Z,98246.06
2023-04-26T02:28:47.308Z,98249.08
2023-04-26T02:31:39.293Z,98249.33
2023-04-26T02:34:31.872Z,98249.46
2023-04-26T02:37:06.274Z,98251.77
2023-04-26T02:39:58.296Z,98248.70
2023-04-26T02:42:50.725Z,98248.02
2023-04-26T02:45:44.997Z,98245.64
2023-04-26T02:48:35.412Z,98250.10
2023-04-26T02:51:27.378Z,98245.73
2023-04-26T02:54:19.370Z,98247.85
2023-04-26T02:57:11.624Z,98248.85
2023-04-26T03:00:05.442Z,98248.24
2023-04-26T03:02:57.873Z,98254.85
2023-04-26T03:05:50.015Z,98256.77
2023-04-26T03:08:41.974Z,98262.00
2023-04-26T03:11:33.996Z,98261.39
2023-04-26T03:14:26.594Z,98264.52
2023-04-26T03:17:18.499Z,98268.84
2023-04-26T03:20:12.080Z,98272.52
2023-04-26T03:23:04.021Z,98277.33
2023-04-26T03:25:46.095Z,98278.13
2023-04-26T03:28:38.041Z,98283.96
2023-04-26T03:31:30.137Z,98290.17
2023-04-26T03:34:04.697Z,98293.20
2023-04-26T03:36:56.896Z,98289.42
2023-04-26T03:39:50.602Z,98293.27
2023-04-26T03:42:42.514Z,98293.00
2023-04-26T03:45:34.534Z,98300.38
2023-04-26T03:48:27.915Z,98300.67
2023-04-26T03:51:19.960Z,98302.68
2023-04-26T03:54:12.172Z,98305.27
2023-04-26T03:57:04.121Z,98304.09
2023-04-26T03:59:56.265Z,98313.84
2023-04-26T04:02:48.274Z,98311.89
2023-04-26T04:05:40.615Z,98317.16
2023-04-26T04:08:32.916Z,98317.02
2023-04-26T04:11:27.819Z,98315.39
2023-04-26T04:14:19.856Z,98318.70
2023-04-26T04:17:12.228Z,98324.95
2023-04-26T04:20:07.296Z,98325.48
2023-04-26T04:22:59.645Z,98334.39
2023-04-26T04:25:52.380Z,98340.68
2023-04-26T04:28:45.547Z,98341.48
2023-04-26T04:31:37.998Z,98341.84
2023-04-26T04:34:30.223Z,98345.35
2023-04-26T04:37:22.870Z,98350.23
2023-04-26T04:40:16.003Z,98357.28
2023-04-26T04:43:07.969Z,98360.22
2023-04-26T04:46:00.078Z,98362.19
2023-04-26T04:48:53.388Z,98364.70
2023-04-26T04:51:45.830Z,98365.20
2023-04-26T04:54:37.939Z,98369.77
2023-04-26T04:57:30.018Z,98368.05
2023-04-26T05:00:22.952Z,98367.27
2023-04-26T05:03:16.517Z,98370.23
2023-04-26T05:06:09.829Z,98368.48
2023-04-26T05:09:02.470Z,98366.44
2023-04-26T05:11:54.504Z,98371.80
2023-04-26T05:14:46.478Z,98366.65
2023-04-26T05:17:38.522Z,98368.34
2023-04-26T05:20:31.266Z,98366.23
2023-04-26T05:23:23.219Z,98367.61
2023-04-26T05:26:16.444Z,98372.98
2023-04-26T05:29:08.380Z,98368.55
2023-04-26T05:32:00.495Z,98369.89
2023-04-26T05:34:52.541Z,98374.80
2023-04-26T05:37:45.040Z,98370.58
2023-04-26T05:40:37.179Z,98374.26
2023-04-26T05:43:29.143Z,98372.06
2023-04-26T05:46:21.550Z,98367.66
2023-04-26T05:49:13.612Z,98372.89
2023-04-26T05:52:05.786Z,98367.54
2023-04-26T05:54:57.824Z,98372.62
2023-04-26T05:57:50.043Z,98370.15
2023-04-26T06:00:42.598Z,98378.88
2023-04-26T06:03:34.809Z,98371.02
2023-04-26T06:06:28.408Z,98369.66
2023-04-26T06:09:20.647Z,98373.40
2023-04-26T06:12:12.684Z,98372.89
2023-04-26T06:15:04.914Z,98379.11
2023-04-26T06:17:57.072Z,98382.04
2023-04-26T06:20:49.499Z,98387.96
2023-04-26T06:23:41.515Z,98385.77
2023-04-26T06:26:33.508Z,98390.11
2023-04-26T06:29:25.680Z,98392.37
2023-04-26T06:32:17.663Z,98393.17
2023-04-26T06:35:10.544Z,98396.73
2023-04-26T06:38:02.643Z,98392.02
2023-04-26T06:40:54.769Z,98389.64
2023-04-26T06:43:46.720Z,98393.88
2023-04-26T06:46:38.993Z,98398.89
2023-04-26T06:49:31.138Z,98395.95
2023-04-26T06:52:23.312Z,98401.02
2023-04-26T06:55:15.384Z,98406.48
2023-04-26T06:58:07.412Z,98404.48
2023-04-26T07:00:59.429Z,98404.02
2023-04-26T07:03:51.859Z,98405.16
2023-04-26T07:06:44.160Z,98403.48
2023-04-26T07:09:36.151Z,98400.59
2023-04-26T07:12:28.130Z,98409.45
2023-04-26T07:15:10.842Z,98410.87
2023-04-26T07:18:01.342Z,98415.56
2023-04-26T07:20:53.324Z,98417.41
2023-04-26T07:23:45.441Z,98417.37
2023-04-26T07:26:38.064Z,98415.40
2023-04-26T07:29:30.055Z,98413.20
2023-04-26T07:32:22.050Z,98415.48
2023-04-26T07:35:16.345Z,98424.89
2023-04-26T07:38:09.036Z,98420.02
2023-04-26T07:41:01.265Z,98418.81
2023-04-26T07:43:53.553Z,98419.91
2023-04-26T07:46:46.145Z,98427.80
2023-04-26T07:49:38.227Z,98434.08
2023-04-26T07:52:30.187Z,98429.33
2023-04-26T07:55:22.159Z,98430.40
2023-04-26T07:58:14.625Z,98428.82
2023-04-26T08:01:06.964Z,98430.08
2023-04-26T08:03:59.165Z,98434.14
2023-04-26T08:06:51.487Z,98441.23
2023-04-26T08:09:43.462Z,98439.98
2023-04-26T08:12:37.079Z,98437.70
2023-04-26T08:15:29.066Z,98442.55
2023-04-26T08:18:21.226Z,98444.19
2023-04-26T08:21:13.181Z,98450.01
2023-04-26T08:24:05.487Z,98449.19
2023-04-26T08:26:58.523Z,98446.49
2023-04-26T08:29:51.190Z,98435.66
2023-04-26T08:32:43.323Z,98442.98
2023-04-26T08:35:35.534Z,98447.95
2023-04-26T08:38:27.512Z,98443.16
2023-04-26T08:41:25.350Z,98437.26
2023-04-26T08:44:18.956Z,98434.11
2023-04-26T08:47:17.772Z,98433.73
2023-04-26T08:50:12.326Z,98438.77
2023-04-26T08:53:04.487Z,98434.86
2023-04-26T08:55:56.810Z,98441.13
2023-04-26T08:58:48.837Z,98431.73
2023-04-26T09:01:44.715Z,98431.45
2023-04-26T09:04:37.900Z,98449.67
2023-04-26T09:07:34.012Z,98451.91
2023-04-26T09:10:26.871Z,98457.17
2023-04-26T09:13:19.049Z,98450.50
2023-04-26T09:16:11.578Z,98450.33
2023-04-26T09:18:58.917Z,98452.27
2023-04-26T09:21:33.460Z,98458.09
2023-04-26T09:24:25.870Z,98456.34
2023-04-26T09:27:18.039Z,98447.59
2023-04-26T09:30:13.186Z,98456.14
2023-04-26T09:33:06.931Z,98458.76
2023-04-26T09:36:13.643Z,98469.33
2023-04-26T09:39:05.626Z,98471.31
2023-04-26T09:41:58.127Z,98466.63
2023-04-26T09:44:51.817Z,98464.88
2023-04-26T09:47:43.820Z,98458.72
2023-04-26T09:50:35.884Z,98457.48
2023-04-26T09:53:28.443Z,98451.44
2023-04-26T09:56:22.112Z,98451.63
2023-04-26T09:59:14.299Z,98458.84
2023-04-26T10:02:09.760Z,98463.27
2023-04-26T10:05:03.094Z,98467.52
2023-04-26T10:07:55.595Z,98474.48
2023-04-26T10:10:48.806Z,98483.08
2023-04-26T10:13:41.533Z,98475.66
2023-04-26T10:16:34.097Z,98473.55
2023-04-26T10:19:26.693Z,98473.56
2023-04-26T10:22:25.348Z,98470.75
2023-04-26T10:25:17.346Z,98467.14
2023-04-26T10:28:09.775Z,98468.41
2023-04-26T10:31:02.342Z,98463.71
2023-04-26T10:34:22.986Z,98461.61
2023-04-26T10:37:16.893Z,98467.32
2023-04-26T10:40:36.254Z,98477.21
2023-04-26T10:43:34.163Z,98491.71
2023-04-26T10:46:37.244Z,98493.66
2023-04-26T10:49:29.295Z,98494.52
2023-04-26T10:52:23.248Z,98487.67
2023-04-26T10:55:35.347Z,98481.64
2023-04-26T10:58:31.246Z,98475.36
2023-04-26T11:01:23.502Z,98474.79
2023-04-26T11:04:16.334Z,98478.55
2023-04-26T11:07:08.551Z,98467.98
2023-04-26T11:10:03.548Z,98467.64
2023-04-26T11:13:04.218Z,98461.41
2023-04-26T11:16:05.822Z,98462.42
2023-04-26T11:18:58.007Z,98470.90
2023-04-26T11:21:50.617Z,98473.92
2023-04-26T11:24:43.898Z,98483.71
2023-04-26T11:27:35.848Z,98484.59
2023-04-26T11:30:28.756Z,98484.95
2023-04-26T11:33:23.204Z,98477.99
2023-04-26T11:36:15.431Z,98480.12
2023-04-26T11:39:08.055Z,98481.39
2023-04-26T11:42:08.752Z,98480.02
2023-04-26T11:45:01.659Z,98488.67
2023-04-26T11:47:54.969Z,98499.58
2023-04-26T11:50:38.430Z,98486.23
2023-04-26T11:53:39.222Z,98488.45
2023-04-26T11:56:31.310Z,98481.89
2023-04-26T11:59:29.121Z,98483.20
2023-04-26T12:02:24.943Z,98485.52
2023-04-26T12:05:26.950Z,98476.52
2023-04-26T12:08:18.963Z,98474.61
2023-04-26T12:11:04.248Z,98471.56
2023-04-26T12:13:58.717Z,98475.12
2023-04-26T12:16:50.746Z,98473.80
2023-04-26T12:19:27.484Z,98479.77
2023-04-26T12:22:22.972Z,98474.69
2023-04-26T12:25:15.085Z,98478.11
2023-04-26T12:28:12.573Z,98476.06
2023-04-26T12:30:53.644Z,98477.95
2023-04-26T12:33:45.879Z,98480.24
2023-04-26T12:36:17.818Z,98478.77
2023-04-26T12:39:09.805Z,98479.06
2023-04-26T12:42:01.781Z,98479.90
2023-04-26T12:44:53.747Z,98484.95
2023-04-26T12:47:45.965Z,98486.62
2023-04-26T12:50:38.358Z,98483.20
2023-04-26T12:53:30.418Z,98483.95
2023-04-26T12:56:22.512Z,98479.96
2023-04-26T12:59:14.748Z,98476.55
2023-04-26T13:02:06.770Z,98482.94
2023-04-26T13:04:58.955Z,98488.66
2023-04-26T13:07:51.404Z,98490.36
2023-04-26T13:10:43.474Z,98486.14
2023-04-26T13:13:43.186Z,98494.82
2023-04-26T13:16:36.666Z,98499.62
2023-04-26T13:19:28.772Z,98502.05
2023-04-26T13:22:22.070Z,98502.70
2023-04-26T13:24:59.592Z,98508.02
2023-04-26T13:27:53.637Z,98502.25
2023-04-26T13:30:46.008Z,98508.18
2023-04-26T13:33:38.142Z,98502.52
2023-04-26T13:36:30.057Z,98509.30
2023-04-26T13:39:22.183Z,98514.57
2023-04-26T13:42:14.214Z,98506.43
2023-04-26T13:45:10.110Z,98509.36
2023-04-26T13:48:03.526Z,98509.36
2023-04-26T13:50:56.268Z,98512.52
2023-04-26T13:53:48.242Z,98511.48
2023-04-26T13:56:40.298Z,98518.33
2023-04-26T13:59:32.326Z,98518.34
2023-04-26T14:02:24.590Z,98518.70
2023-04-26T14:05:17.772Z,98536.92
2023-04-26T14:08:10.653Z,98545.81
2023-04-26T14:11:02.634Z,98549.29
2023-04-26T14:13:56.093Z,98550.80
2023-04-26T14:16:48.284Z,98553.48
2023-04-26T14:19:40.342Z,98555.46
2023-04-26T14:22:32.359Z,98555.91
2023-04-26T14:25:11.026Z,98553.35
2023-04-26T14:28:04.113Z,98553.70
2023-04-26T14:30:56.573Z,98559.98
2023-04-26T14:33:48.507Z,98557.67
2023-04-26T14:36:40.642Z,98559.78
2023-04-26T14:39:32.829Z,98551.96
2023-04-26T14:42:24.882Z,98559.36
2023-04-26T14:45:17.066Z,98556.05
2023-04-26T14:48:09.450Z,98564.23
2023-04-26T14:51:04.382Z,98564.83
2023-04-26T14:53:56.397Z,98577.00
2023-04-26T14:56:48.504Z,98574.60
2023-04-26T14:59:40.695Z,98576.00
2023-04-26T15:02:32.804Z,98568.02
2023-04-26T15:05:24.866Z,98557.80
2023-04-26T15:08:17.150Z,98560.93
2023-04-26T15:11:09.346Z,98560.85
2023-04-26T15:14:01.341Z,98569.77
2023-04-26T15:16:53.382Z,98566.14
2023-04-26T15:19:45.495Z,98565.11
2023-04-26T15:22:40.664Z,98568.16
2023-04-26T15:25:35.479Z,98570.98
2023-04-26T15:28:27.518Z,98568.08
2023-04-26T15:31:19.572Z,98573.97
2023-04-26T15:34:11.846Z,98571.06
2023-04-26T15:37:03.785Z,98572.45
2023-04-26T15:39:55.815Z,98574.98
2023-04-26T15:42:48.754Z,98576.73
2023-04-26T15:45:40.873Z,98577.10
2023-04-26T15:48:32.865Z,98578.06
2023-04-26T15:51:24.988Z,98577.16
2023-04-26T15:54:17.102Z,98581.06
2023-04-26T15:57:09.075Z,98584.05
2023-04-26T16:00:01.585Z,98585.99
2023-04-26T16:02:53.860Z,98589.23
2023-04-26T16:05:45.945Z,98586.79
2023-04-26T16:08:40.784Z,98589.05
2023-04-26T16:11:33.902Z,98587.52
2023-04-26T16:14:26.273Z,98598.08
2023-04-26T16:17:18.270Z,98602.27
2023-04-26T16:20:11.710Z,98604.08
2023-04-26T16:23:04.025Z,98608.52
2023-04-26T16:25:57.588Z,98609.66
2023-04-26T16:28:50.333Z,98612.64
2023-04-26T16:31:26.269Z,98610.73
2023-04-26T16:34:18.253Z,98604.64
2023-04-26T16:37:10.261Z,98608.63
2023-04-26T16:40:02.585Z,98613.35
2023-04-26T16:42:54.590Z,98616.76
2023-04-26T16:45:47.153Z,98618.92
2023-04-26T16:48:39.856Z,98619.61
2023-04-26T16:51:32.035Z,98622.42
2023-04-26T16:54:24.071Z,98621.77
2023-04-26T16:57:16.542Z,98627.81
2023-04-26T17:00:11.680Z,98629.66
2023-04-26T17:03:03.790Z,98627.04
2023-04-26T17:05:55.919Z,98633.02
2023-04-26T17:08:30.864Z,98636.55
2023-04-26T17:11:22.976Z,98638.45
2023-04-26T17:14:14.979Z,98642.02
2023-04-26T17:17:06.979Z,98648.64
2023-04-26T17:19:59.106Z,98646.05
2023-04-26T17:22:51.183Z,98647.85
2023-04-26T17:25:43.234Z,98651.54
2023-04-26T17:28:35.910Z,98652.91
2023-04-26T17:31:28.311Z,98661.57
2023-04-26T17:34:20.399Z,98662.67
2023-04-26T17:37:12.478Z,98666.77
2023-04-26T17:40:06.031Z,98669.92
2023-04-26T17:42:58.079Z,98672.53
2023-04-26T17:45:50.146Z,98677.43
2023-04-26T17:48:24.716Z,98682.56
2023-04-26T17:51:16.650Z,98682.76
2023-04-26T17:54:09.220Z,98688.80
2023-04-26T17:57:01.348Z,98687.88
2023-04-26T17:59:54.154Z,98693.60
2023-04-26T18:02:46.327Z,98694.75
2023-04-26T18:05:38.455Z,98694.59
2023-04-26T18:08:30.516Z,98697.98
2023-04-26T18:11:22.755Z,98692.40
2023-04-26T18:14:14.853Z,98697.02
2023-04-26T18:17:08.016Z,98699.04
2023-04-26T18:20:00.066Z,98696.42
2023-04-26T18:22:52.112Z,98699.58
2023-04-26T18:25:45.334Z,98700.48
2023-04-26T18:28:37.352Z,98703.89
2023-04-26T18:31:32.478Z,98707.42
2023-04-26T18:34:29.136Z,98712.56
2023-04-26T18:37:21.128Z,98715.02
2023-04-26T18:40:14.406Z,98711.95
2023-04-26T18:43:06.646Z,98717.27
2023-04-26T18:45:58.873Z,98719.35
2023-04-26T18:48:51.153Z,98723.55
2023-04-26T18:51:43.139Z,98722.67
2023-04-26T18:54:35.123Z,98719.92
2023-04-26T18:57:28.196Z,98724.69
2023-04-26T19:00:11.896Z,98728.34
2023-04-26T19:03:04.121Z,98733.17
2023-04-26T19:05:56.329Z,98732.77
2023-04-26T19:08:48.333Z,98733.61
2023-04-26T19:11:40.526Z,98738.85
2023-04-26T19:14:32.602Z,98738.54
2023-04-26T19:17:24.682Z,98746.44
2023-04-26T19:20:16.868Z,98743.47
2023-04-26T19:23:08.783Z,98745.60
2023-04-26T19:26:06.272Z,98743.23
2023-04-26T19:28:58.310Z,98744.02
2023-04-26T19:31:40.485Z,98750.70
2023-04-26T19:34:32.815Z,98751.29
2023-04-26T19:37:24.785Z,98754.96
2023-04-26T19:40:16.902Z,98755.23
2023-04-26T19:43:08.874Z,98753.98
2023-04-26T19:46:00.883Z,98755.36
2023-04-26T19:48:53.012Z,98762.83
2023-04-26T19:51:44.931Z,98759.38
2023-04-26T19:54:37.341Z,98763.49
2023-04-26T19:57:29.878Z,98760.77
2023-04-26T20:00:22.368Z,98764.73
2023-04-26T20:03:14.491Z,98769.37
2023-04-26T20:06:06.580Z,98766.06
2023-04-26T20:08:58.563Z,98767.08
2023-04-26T20:11:39.203Z,98765.45
2023-04-26T20:14:31.620Z,98769.56
2023-04-26T20:17:23.636Z,98765.98
2023-04-26T20:20:16.136Z,98770.52
2023-04-26T20:23:08.498Z,98767.93
2023-04-26T20:26:00.512Z,98773.84
2023-04-26T20:28:52.495Z,98774.55
2023-04-26T20:31:44.578Z,98774.85
2023-04-26T20:34:36.584Z,98777.21
2023-04-26T20:37:28.675Z,98781.11
2023-04-26T20:40:21.616Z,98778.14
2023-04-26T20:43:13.892Z,98777.85
2023-04-26T20:46:06.057Z,98782.21
2023-04-26T20:48:58.045Z,98782.68
2023-04-26T20:51:50.034Z,98781.56
2023-04-26T20:54:42.090Z,98786.31
2023-04-26T20:57:34.096Z,98786.63
2023-04-26T21:00:26.510Z,98784.52
2023-04-26T21:03:18.767Z,98788.01
2023-04-26T21:06:10.907Z,98787.45
2023-04-26T21:09:03.817Z,98786.09
2023-04-26T21:11:55.780Z,98794.71
2023-04-26T21:14:47.946Z,98800.88
2023-04-26T21:17:40.998Z,98798.35
2023-04-26T21:20:33.036Z,98795.80
2023-04-26T21:23:25.021Z,98798.71
2023-04-26T21:26:16.985Z,98804.49
2023-04-26T21:29:09.180Z,98806.70
2023-04-26T21:32:01.332Z,98808.23
2023-04-26T21:34:53.321Z,98812.05
2023-04-26T21:37:45.376Z,98811.45
2023-04-26T21:40:37.341Z,98810.92
2023-04-26T21:43:29.411Z,98815.01
2023-04-26T21:46:21.423Z,98819.33
2023-04-26T21:49:13.399Z,98820.50
2023-04-26T21:52:05.459Z,98823.61
2023-04-26T21:54:57.404Z,98821.88
2023-04-26T21:57:49.369Z,98823.23
2023-04-26T22:00:30.253Z,98825.68
2023-04-26T22:03:12.524Z,98831.33
2023-04-26T22:06:05.066Z,98833.11
2023-04-26T22:08:57.017Z,98831.30
2023-04-26T22:11:49.016Z,98833.02
2023-04-26T22:14:40.972Z,98838.67
2023-04-26T22:17:33.634Z,98844.09
2023-04-26T22:20:26.459Z,98842.48
2023-04-26T22:23:18.533Z,98849.39
2023-04-26T22:26:10.496Z,98848.91
2023-04-26T22:29:02.684Z,98845.02
2023-04-26T22:31:54.813Z,98849.27
2023-04-26T22:34:46.817Z,98848.84
2023-04-26T22:37:38.857Z,98853.59
2023-04-26T22:40:32.024Z,98852.14
2023-04-26T22:43:24.933Z,98849.70
2023-04-26T22:46:18.260Z,98854.29
2023-04-26T22:49:10.404Z,98857.04
2023-04-26T22:52:09.777Z,98860.10
2023-04-26T22:55:10.848Z,98859.13
2023-04-26T22:58:03.207Z,98861.02
2023-04-26T23:00:55.285Z,98860.04
2023-04-26T23:03:47.316Z,98866.34
2023-04-26T23:06:39.312Z,98867.41
2023-04-26T23:09:31.709Z,98869.71
2023-04-26T23:12:23.689Z,98868.32
2023-04-26T23:15:00.058Z,98871.69
2023-04-26T23:17:53.833Z,98871.70
2023-04-26T23:20:46.426Z,98868.90
2023-04-26T23:23:38.480Z,98873.95
2023-04-26T23:26:30.575Z,98875.95
2023-04-26T23:29:22.543Z,98878.32
2023-04-26T23:32:14.517Z,98876.13
2023-04-26T23:35:07.593Z,98874.21
2023-04-26T23:37:59.570Z,98877.64
2023-04-26T23:40:51.665Z,98876.44
2023-04-26T23:43:43.657Z,98879.10
2023-04-26T23:46:18.361Z,98879.61
2023-04-26T23:49:10.674Z,98884.01
2023-04-26T23:52:02.766Z,98884.02
2023-04-26T23:54:54.712Z,98881.36
2023-04-26T23:57:46.726Z,98880.58
